Nashville, Tennessee
Traffic Map
Current Weather Conditions
Nashville, Tennessee
Overcast Light Snow
Overcast
25°
Feels Like: 15°
Wind Chill: 15° Ceiling: 2200
Heat Index: 25° Visibility: 3mi
Dew Point: 16° Wind: 10mph
Humidity: 69% Direction: 320° (NW)
Pressure: 30in Gusts: 0mph
Raw Report DataKBNA 092208Z 32009KT 3SM -SN BKN022 BKN030 OVC037 M04/M09 A3000 RMK AO2 TWR VIS 4 P0000
Traffic Incident Summary
Active as of:
Severity:
Category:
InformationThere was an issue retrieving the traffic information for this location. Please try a different location or try again shortly.
Advertisements
Track Severe Weather on mobile